Alango, Minnesota
Current Conditions -  °F | °C
As of 6:14 PM on Friday 24 Oct 2014 (Local Time) from KCQM Reporting Station
Clear Clear  
Wind Chill: 64°   Ceiling: Unl
Heat Index: 64°   Visibility: 10mi
Dew Point: 39°   Wind: 7mph
Humidity: 40%   Direction: 220°SW
Pressure: 29.71"   Gusts: NA
Location:  47.7453°N, 92.7634°W
Report Text: KCQM 242314Z AUTO 22006KT 10SM CLR 18/04 A2971 RMK AO2
Loading
Personal Weather Stations






























Interactive Weather Map
Tropical Storm Tracking
New forecast layout! Learn more

10-Day Weather Forecast

Advertisements
Track Severe Weather on mobile